Terminal Aerodrome Forecast
Issued by NWS Charleston, WV

Current Version | Previous Version | Text Only | Print | Product List | Glossary Off
Versions: 1 2 3 4 5 6 7 8 9 10 11 12 13 14 15 16 17 18 19 20 21 22 23 24 25

123
FTUS41 KRLX 081220 RRA
TAFCRW
TAF
KCRW 081220Z 0812/0912 24004KT P6SM BKN060
     FM081400 26007KT P6SM BKN060
     FM081700 27008KT P6SM SCT250
     FM082300 28009G15KT P6SM BKN040
     FM090600 29008KT P6SM OVC025=

USA.gov is the U.S. government's official web portal to all federal, state and local government web resources and services.